Bovina, Colorado
Current Conditions -  °F | °C
As of 12:55 PM on Friday 31 Oct 2014 (Local Time) from KLIC Reporting Station
Clear Clear  
Wind Chill: 40°   Ceiling: Unl
Heat Index: 48°   Visibility: 10mi
Dew Point: 28°   Wind: 29mph
Humidity: 46%   Direction: 160°SSE
Pressure: 30.29"   Gusts: 37mph
Location:  39.4374°N, 103.393°W
Report Text: KLIC 311855Z AUTO 16025G32KT 10SM CLR 09/M02 A3029 RMK AO2 PK WND 16033/1835 SLP251 T00891022
Loading
Personal Weather Stations






























Interactive Weather Map
Tropical Storm Tracking
New forecast layout! Learn more

10-Day Weather Forecast

Advertisements
Track Severe Weather on mobile